Mikkeli, Mikkeli Airport (EFMI)

NameMikkeli Airport
CityMikkeli
CountryFinland
ICAOEFMI
IATAMIK
Altitude100 m
CoordinatesGoogle Map
Live Air TrafficLiveATC.net
METAREFMI 260550Z AUTO 27005KT 9999 FEW019 BKN078 BKN110 BKN153 15/12 Q1021
2019-06-26 05:50:00 Wind: West (270°) 2.57 m/s - Visibility: > 10000 m - Temperature: 15 °C - Dew point: 12 °C - Humidity: 82.4% - Pressure: 1021 hPa

Sorry, no flights used the airport in this database.